Time;durP1;ratioP1;P1;durP2;ratioP2;P2;SDS_P1;SDS_P2;PMS_P1;PMS_P2;Temp;Humidity;BMP_temperature;BMP_pressure;BME280_temperature;BME280_humidity;BME280_pressure;Samples;Min_cycle;Max_cycle;Signal;HPM_P1;HPM_P2
2022/09/30 00:01:44;;;;;;;;;;;6.80;99.90;;;;;;5033073;28;20049;-73
2022/09/30 00:04:18;;;;;;;10.32;5.28;;;6.60;99.90;;;;;;5019729;28;19929;-72
2022/09/30 00:06:45;;;;;;;9.23;4.72;;;6.70;99.90;;;;;;5015054;28;20049;-73
2022/09/30 00:09:13;;;;;;;12.80;5.25;;;6.70;99.90;;;;;;4996686;28;20357;-73
2022/09/30 00:11:41;;;;;;;11.43;5.43;;;7.10;99.90;;;;;;4997986;28;20048;-72
2022/09/30 00:14:13;;;;;;;;;;;7.00;99.90;;;;;;5014287;28;20045;-73
2022/09/30 00:16:42;;;;;;;9.65;4.63;;;6.70;99.90;;;;;;4997848;28;19921;-72
2022/09/30 00:19:10;;;;;;;9.20;5.28;;;6.70;99.90;;;;;;4997519;28;20042;-73
2022/09/30 00:21:38;;;;;;;9.77;5.38;;;6.70;99.90;;;;;;4996595;28;20472;-72
2022/09/30 00:24:06;;;;;;;9.70;5.45;;;6.70;99.90;;;;;;5014999;28;20424;-72
2022/09/30 00:26:34;;;;;;;10.70;5.38;;;6.60;99.90;;;;;;5015011;28;20053;-72
2022/09/30 00:29:02;;;;;;;;;;;6.60;99.90;;;;;;4996867;28;20053;-73
2022/09/30 00:31:32;;;;;;;11.45;5.68;;;6.50;99.90;;;;;;5014600;28;20241;-72
2022/09/30 00:34:06;;;;;;;11.90;6.85;;;4.70;99.90;;;;;;5013924;28;20400;-73
2022/09/30 00:36:46;;;;;;;12.93;7.15;;;6.40;99.90;;;;;;5015107;28;20057;-72
2022/09/30 00:39:26;;;;;;;12.43;6.82;;;6.40;99.90;;;;;;4997413;28;20045;-72
2022/09/30 00:41:58;;;;;;;13.55;6.50;;;6.40;99.90;;;;;;5013453;28;20042;-73
2022/09/30 00:44:46;;;;;;;11.25;6.40;;;6.40;99.90;;;;;;5014518;28;20045;-72
2022/09/30 00:47:32;;;;;;;11.80;6.68;;;6.40;99.90;;;;;;4997763;28;20049;-72
2022/09/30 00:50:18;;;;;;;11.52;6.00;;;6.40;99.90;;;;;;4997426;28;20053;-72
2022/09/30 00:52:52;;;;;;;11.95;6.45;;;6.30;99.90;;;;;;5014430;28;20053;-72
2022/09/30 00:55:28;;;;;;;12.35;6.88;;;6.30;99.90;;;;;;4996480;28;20054;-73
2022/09/30 00:57:57;;;;;;;10.65;6.47;;;6.30;99.90;;;;;;5014645;28;20065;-72
2022/09/30 01:00:24;;;;;;;13.45;7.18;;;6.20;99.90;;;;;;4997218;28;20053;-73
2022/09/30 01:02:53;;;;;;;12.23;7.07;;;6.20;99.90;;;;;;5015109;28;20049;-73
2022/09/30 01:05:21;;;;;;;;;;;6.20;99.90;;;;;;5015080;28;20042;-72
2022/09/30 01:07:51;;;;;;;13.32;7.10;;;6.20;99.90;;;;;;5013278;28;20241;-72
2022/09/30 01:10:18;;;;;;;11.02;6.80;;;6.20;99.90;;;;;;5014649;28;20045;-72
2022/09/30 01:12:46;;;;;;;13.27;7.00;;;6.10;99.90;;;;;;5017861;28;20053;-72
2022/09/30 01:15:14;;;;;;;11.48;7.25;;;6.40;99.90;;;;;;5016708;28;20050;-73
2022/09/30 01:17:54;;;;;;;11.18;7.15;;;6.10;99.90;;;;;;5017873;28;20468;-73
2022/09/30 01:20:43;;;;;;;13.93;7.07;;;6.20;99.90;;;;;;5000807;28;20042;-73
2022/09/30 01:23:43;;;;;;;10.85;6.80;;;6.20;99.90;;;;;;4984470;28;20046;-72
2022/09/30 01:26:26;;;;;;;10.20;6.57;;;6.20;99.90;;;;;;5018025;28;20365;-73
2022/09/30 01:28:56;;;;;;;12.10;6.80;;;6.20;99.90;;;;;;4999561;28;20042;-72
2022/09/30 01:31:46;;;;;;;12.35;6.97;;;6.20;99.90;;;;;;5017552;28;20376;-73
2022/09/30 01:34:48;;;;;;;13.90;6.93;;;6.20;99.90;;;;;;4999796;28;20046;-72
2022/09/30 01:37:48;;;;;;;13.98;7.15;;;6.10;99.90;;;;;;5017602;28;20046;-73
2022/09/30 01:40:29;;;;;;;10.48;7.75;;;6.20;99.90;;;;;;4978404;28;20389;-73
2022/09/30 01:43:06;;;;;;;13.30;7.75;;;6.10;99.90;;;;;;5016202;28;20053;-72
2022/09/30 01:45:47;;;;;;;12.15;7.65;;;6.10;99.90;;;;;;5000479;28;20053;-72
2022/09/30 01:48:36;;;;;;;15.52;8.35;;;6.20;99.90;;;;;;5016183;28;20054;-72
2022/09/30 01:51:15;;;;;;;13.48;8.80;;;6.20;99.90;;;;;;5017651;28;20050;-73
2022/09/30 01:53:48;;;;;;;12.55;8.50;;;6.30;99.90;;;;;;5000163;28;20045;-72
2022/09/30 01:56:29;;;;;;;15.95;9.40;;;6.30;99.90;;;;;;5015966;28;20057;-72
2022/09/30 01:59:13;;;;;;;11.82;8.82;;;6.40;99.90;;;;;;5016917;28;20499;-73
2022/09/30 02:02:03;;;;;;;15.00;9.15;;;6.50;99.90;;;;;;5016474;28;20465;-73
2022/09/30 02:04:40;;;;;;;15.02;9.38;;;6.60;99.90;;;;;;5026728;28;20053;-72
2022/09/30 02:07:33;;;;;;;14.80;8.98;;;6.60;99.90;;;;;;5035718;28;20060;-73
2022/09/30 02:10:08;;;;;;;14.52;8.70;;;6.70;99.90;;;;;;5036806;28;20392;-72
2022/09/30 02:12:44;;;;;;;13.70;8.30;;;6.80;99.90;;;;;;5035935;28;20045;-73
2022/09/30 02:15:17;;;;;;;15.98;7.95;;;6.80;99.90;;;;;;5035539;28;20058;-72
2022/09/30 02:18:06;;;;;;;12.23;7.97;;;6.80;99.90;;;;;;5036684;28;20057;-73
2022/09/30 02:20:39;;;;;;;12.15;8.38;;;6.80;99.90;;;;;;5035918;28;20045;-72
2022/09/30 02:23:20;;;;;;;15.13;8.95;;;6.70;99.90;;;;;;5036715;28;20455;-73
2022/09/30 02:25:53;;;;;;;13.68;8.05;;;6.70;99.90;;;;;;5036449;28;20050;-73
2022/09/30 02:28:28;;;;;;;14.30;9.05;;;6.70;99.90;;;;;;5035265;28;20044;-72
2022/09/30 02:30:58;;;;;;;15.30;9.95;;;6.60;99.90;;;;;;5036454;28;20483;-73
2022/09/30 02:33:40;;;;;;;15.35;8.98;;;6.60;99.90;;;;;;5036535;28;20053;-72
2022/09/30 02:36:28;;;;;;;14.85;9.27;;;6.50;99.90;;;;;;5034324;28;20052;-72
2022/09/30 02:39:04;;;;;;;13.82;9.63;;;6.40;99.90;;;;;;5036161;28;20045;-73
2022/09/30 02:41:40;;;;;;;15.52;9.63;;;6.40;99.90;;;;;;5035228;28;20046;-72
2022/09/30 02:44:08;;;;;;;15.32;10.23;;;6.50;99.90;;;;;;5035307;28;20052;-73
2022/09/30 02:47:10;;;;;;;17.42;9.57;;;6.40;99.90;;;;;;5035983;28;20063;-73
2022/09/30 02:50:00;;;;;;;13.43;9.13;;;6.30;99.90;;;;;;5034061;28;20048;-73
2022/09/30 02:53:13;;;;;;;13.55;8.98;;;6.30;99.90;;;;;;5035895;28;20046;-73
2022/09/30 02:55:50;;;;;;;15.50;9.77;;;6.30;99.90;;;;;;5017934;28;20061;-72
2022/09/30 02:58:20;;;;;;;16.02;10.40;;;6.20;99.90;;;;;;5035899;28;20048;-73
2022/09/30 03:00:49;;;;;;;14.73;9.52;;;6.20;99.90;;;;;;5034580;28;20041;-73
2022/09/30 03:03:41;;;;;;;18.25;9.73;;;6.10;99.90;;;;;;5018385;28;20044;-73
2022/09/30 03:06:10;;;;;;;20.33;10.68;;;6.10;99.90;;;;;;5035615;28;20057;-72
2022/09/30 03:08:37;;;;;;;16.23;9.95;;;6.10;99.90;;;;;;5034577;28;20045;-72
2022/09/30 03:11:06;;;;;;;17.25;10.45;;;6.50;99.90;;;;;;5034759;28;20368;-72
2022/09/30 03:14:08;;;;;;;17.52;10.30;;;7.30;99.90;;;;;;5034667;28;20041;-72
2022/09/30 03:16:57;;;;;;;16.05;10.80;;;6.10;99.90;;;;;;5034529;28;20057;-72
2022/09/30 03:20:07;;;;;;;19.92;10.90;;;6.20;99.90;;;;;;5035561;28;20049;-72
2022/09/30 03:22:57;;;;;;;16.33;10.02;;;6.20;99.90;;;;;;5033412;28;20041;-73
2022/09/30 03:25:34;;;;;;;19.40;11.13;;;6.30;99.90;;;;;;5034789;28;20388;-72
2022/09/30 03:28:24;;;;;;;20.83;12.70;;;6.40;99.90;;;;;;5049880;28;20037;-73
2022/09/30 03:31:11;;;;;;;22.45;12.13;;;6.50;99.90;;;;;;5035728;28;20290;-72
2022/09/30 03:34:01;;;;;;;20.45;13.05;;;6.70;99.90;;;;;;5034225;28;20372;-73
2022/09/30 03:36:40;;;;;;;17.92;12.30;;;6.80;99.90;;;;;;5034983;28;20045;-72
2022/09/30 03:39:23;;;;;;;16.10;11.65;;;7.50;99.90;;;;;;5034486;28;20048;-72
2022/09/30 03:42:27;;;;;;;18.65;10.13;;;7.10;99.90;;;;;;5034099;28;20041;-73
2022/09/30 03:45:14;;;;;;;16.30;11.15;;;7.20;99.90;;;;;;5017046;28;20380;-72
2022/09/30 03:47:48;;;;;;;22.43;10.63;;;7.40;99.90;;;;;;5033610;28;20376;-72
2022/09/30 03:50:20;;;;;;;20.55;11.50;;;7.50;99.90;;;;;;5034236;28;20380;-72
2022/09/30 03:52:49;;;;;;;15.70;10.30;;;7.60;99.90;;;;;;5034173;28;20049;-73
2022/09/30 03:55:18;;;;;;;20.23;10.07;;;7.70;99.90;;;;;;5032874;28;20049;-72
2022/09/30 03:57:45;;;;;;;19.42;9.65;;;7.80;99.90;;;;;;5034099;28;20053;-73
2022/09/30 04:00:13;;;;;;;20.25;9.68;;;7.90;99.90;;;;;;5035019;28;20045;-73
2022/09/30 04:02:41;;;;;;;15.40;10.23;;;8.00;99.90;;;;;;5033298;28;20041;-73
2022/09/30 04:05:08;;;;;;;18.00;11.75;;;8.00;99.90;;;;;;5014472;28;20046;-72
2022/09/30 04:07:36;;;;;;;18.60;11.20;;;8.10;99.90;;;;;;5013939;28;20045;-73
2022/09/30 04:10:04;;;;;;;22.13;11.30;;;8.20;99.90;;;;;;5014819;28;20388;-73
2022/09/30 04:12:31;;;;;;;24.90;13.07;;;8.30;99.90;;;;;;5015462;28;20045;-73
2022/09/30 04:14:59;;;;;;;26.08;14.30;;;8.30;99.90;;;;;;5014382;28;20369;-72
2022/09/30 04:17:27;;;;;;;39.70;17.13;;;8.40;99.90;;;;;;5013931;28;20065;-72
2022/09/30 04:19:54;;;;;;;54.03;20.23;;;8.40;99.90;;;;;;4997525;28;20041;-72
2022/09/30 04:22:21;;;;;;;54.45;22.13;;;8.50;99.90;;;;;;4996628;28;20053;-73
2022/09/30 04:24:53;;;;;;;66.43;22.67;;;8.60;99.90;;;;;;5015216;28;20041;-73
2022/09/30 04:27:20;;;;;;;56.13;22.45;;;8.60;99.90;;;;;;5014005;28;20045;-72
2022/09/30 04:29:49;;;;;;;74.85;24.75;;;8.70;99.90;;;;;;5014784;28;20050;-73
2022/09/30 04:32:17;;;;;;;73.38;23.45;;;8.80;99.90;;;;;;4997879;28;20065;-73
2022/09/30 04:34:44;;;;;;;99.45;26.10;;;8.80;99.90;;;;;;4996555;28;20065;-72
2022/09/30 04:37:12;;;;;;;86.60;27.02;;;8.80;99.90;;;;;;5015137;28;20368;-72
2022/09/30 04:39:40;;;;;;;105.25;29.95;;;8.90;99.90;;;;;;5014546;28;20056;-73
2022/09/30 04:42:07;;;;;;;128.80;32.17;;;8.90;99.90;;;;;;4996637;28;20041;-73
2022/09/30 04:44:35;;;;;;;130.48;32.35;;;10.60;99.90;;;;;;4997653;28;20050;-73
2022/09/30 04:47:03;;;;;;;140.68;32.22;;;9.00;99.90;;;;;;5018069;28;20046;-73
2022/09/30 04:49:30;;;;;;;161.40;33.85;;;9.00;99.90;;;;;;5016310;28;20465;-73
2022/09/30 04:51:58;;;;;;;184.98;33.45;;;10.50;99.90;;;;;;5001096;28;20050;-73
2022/09/30 04:54:25;;;;;;;211.70;35.22;;;9.10;99.90;;;;;;5017684;28;20042;-72
2022/09/30 04:56:52;;;;;;;172.10;33.63;;;9.10;99.90;;;;;;5017895;28;20485;-73
2022/09/30 04:59:20;;;;;;;236.52;33.83;;;9.90;99.90;;;;;;5018484;28;20508;-72
2022/09/30 05:01:47;;;;;;;360.50;37.10;;;9.10;99.90;;;;;;5017010;28;20061;-73
2022/09/30 05:04:15;;;;;;;343.38;38.25;;;9.10;99.90;;;;;;5017923;28;20042;-73
2022/09/30 05:06:43;;;;;;;503.23;40.95;;;9.20;99.90;;;;;;5017909;28;20046;-72
2022/09/30 05:09:11;;;;;;;317.40;36.15;;;9.30;99.90;;;;;;4999821;28;20046;-73
2022/09/30 05:11:41;;;;;;;227.07;32.70;;;9.30;99.90;;;;;;5017865;28;20060;-73
2022/09/30 05:14:08;;;;;;;213.70;33.97;;;9.30;99.90;;;;;;5016731;28;20053;-72
2022/09/30 05:16:36;;;;;;;366.13;35.80;;;9.30;99.90;;;;;;5017107;28;20061;-72
2022/09/30 05:19:06;;;;;;;258.10;35.05;;;9.40;99.90;;;;;;5001226;28;20471;-73
2022/09/30 05:21:34;;;;;;;262.85;33.80;;;9.40;99.90;;;;;;5000085;28;20042;-73
2022/09/30 05:24:02;;;;;;;261.60;35.42;;;9.40;99.90;;;;;;5018063;28;20050;-73
2022/09/30 05:26:30;;;;;;;230.60;32.58;;;9.50;99.90;;;;;;5017736;28;20465;-72
2022/09/30 05:28:57;;;;;;;230.05;33.55;;;10.40;99.90;;;;;;5016497;28;20050;-72
2022/09/30 05:31:25;;;;;;;243.48;33.80;;;9.50;99.90;;;;;;5000290;28;20060;-72
2022/09/30 05:33:54;;;;;;;221.27;34.50;;;9.60;99.90;;;;;;5017983;28;20380;-73
2022/09/30 05:36:24;;;;;;;178.57;31.73;;;10.50;99.90;;;;;;5000004;28;20465;-72
2022/09/30 05:38:53;;;;;;;195.80;33.95;;;9.60;99.90;;;;;;5017806;28;20053;-72
2022/09/30 05:41:20;;;;;;;;;;;9.60;99.90;;;;;;5015842;28;20046;-72
2022/09/30 05:43:48;;;;;;;156.43;31.27;;;9.70;99.90;;;;;;5017426;28;19925;-72
2022/09/30 05:46:17;;;;;;;146.70;31.05;;;9.70;99.90;;;;;;5000198;28;20037;-72
2022/09/30 05:48:45;;;;;;;154.23;32.08;;;9.70;99.90;;;;;;4999160;28;20049;-72
2022/09/30 05:51:13;;;;;;;156.88;31.70;;;10.10;99.90;;;;;;5017102;28;20045;-72
2022/09/30 05:53:41;;;;;;;141.05;34.78;;;9.80;99.90;;;;;;5000024;28;20380;-72
2022/09/30 05:56:09;;;;;;;146.05;32.92;;;9.80;99.90;;;;;;5015587;28;20065;-72
2022/09/30 05:58:39;;;;;;;138.55;31.05;;;9.90;99.90;;;;;;5000615;28;20049;-72
2022/09/30 06:01:09;;;;;;;141.35;32.45;;;9.90;99.90;;;;;;4998556;28;20053;-72
2022/09/30 06:03:45;;;;;;;124.07;32.60;;;10.00;99.90;;;;;;4996734;28;20053;-72
2022/09/30 06:06:15;;;;;;;143.30;33.45;;;10.00;99.90;;;;;;5036699;28;20368;-72
2022/09/30 06:08:43;;;;;;;154.73;33.72;;;10.00;99.90;;;;;;5035464;28;20053;-72
2022/09/30 06:11:19;;;;;;;149.82;33.92;;;11.20;99.90;;;;;;5036533;28;20057;-72
2022/09/30 06:13:48;;;;;;;144.77;32.95;;;10.10;99.90;;;;;;5036782;28;20053;-72
2022/09/30 06:16:18;;;;;;;150.55;34.03;;;10.10;99.90;;;;;;5036641;28;20060;-72
2022/09/30 06:18:46;;;;;;;126.88;32.38;;;10.10;99.90;;;;;;5053004;28;20472;-72
2022/09/30 06:21:16;;;;;;;171.73;35.03;;;10.20;99.90;;;;;;5055002;28;20055;-72
2022/09/30 06:23:44;;;;;;;139.43;33.50;;;10.20;99.90;;;;;;5056783;28;20047;-72
2022/09/30 06:26:13;;;;;;;141.98;32.25;;;10.20;99.90;;;;;;5056576;28;20049;-72
2022/09/30 06:28:41;;;;;;;129.73;34.08;;;10.20;99.90;;;;;;5044601;28;20045;-72
2022/09/30 06:31:09;;;;;;;135.90;34.10;;;11.40;99.90;;;;;;5019073;28;20404;-72
2022/09/30 06:33:36;;;;;;;144.93;31.45;;;10.30;99.90;;;;;;5018647;28;20136;-72
2022/09/30 06:36:05;;;;;;;133.85;29.40;;;10.30;99.90;;;;;;5035019;28;20369;-72
2022/09/30 06:38:38;;;;;;;125.25;27.65;;;10.40;99.90;;;;;;5036414;28;20049;-75
2022/09/30 06:41:07;;;;;;;119.05;28.38;;;10.40;99.90;;;;;;5054093;28;20052;-72
2022/09/30 06:43:34;;;;;;;110.80;27.65;;;10.50;99.90;;;;;;5055639;28;20064;-73
2022/09/30 06:46:02;;;;;;;99.47;26.23;;;10.40;99.90;;;;;;5054703;28;20060;-71
2022/09/30 06:48:42;;;;;;;106.53;27.88;;;10.40;99.90;;;;;;5053717;28;20045;-72
2022/09/30 06:51:10;;;;;;;88.75;26.50;;;10.50;99.90;;;;;;5055480;28;20053;-73
2022/09/30 06:53:38;;;;;;;78.72;26.08;;;10.50;99.90;;;;;;5038497;28;20041;-72
2022/09/30 06:56:07;;;;;;;75.93;23.70;;;10.60;99.90;;;;;;5054009;28;20045;-72
2022/09/30 06:58:34;;;;;;;68.78;22.90;;;10.60;99.90;;;;;;5054699;28;20368;-73
2022/09/30 07:01:04;;;;;;;65.57;23.40;;;10.60;99.90;;;;;;5054181;28;20045;-72
2022/09/30 07:03:34;;;;;;;82.70;25.33;;;10.60;99.90;;;;;;5054144;28;20045;-72
2022/09/30 07:06:05;;;;;;;246.07;30.33;;;10.60;99.90;;;;;;5055155;28;20045;-72
2022/09/30 07:08:37;;;;;;;91.43;26.50;;;10.60;99.90;;;;;;5052340;28;20052;-71
2022/09/30 07:11:15;;;;;;;78.13;24.70;;;10.60;99.90;;;;;;5037508;28;20068;-71
2022/09/30 07:13:44;;;;;;;67.07;24.05;;;10.60;99.90;;;;;;5055064;28;20049;-71
2022/09/30 07:16:13;;;;;;;74.22;24.42;;;10.70;99.90;;;;;;5053879;28;20367;-71
2022/09/30 07:18:41;;;;;;;66.47;23.80;;;10.70;99.90;;;;;;5051307;28;20049;-71
2022/09/30 07:21:09;;;;;;;55.50;23.05;;;10.60;99.90;;;;;;5038871;28;20048;-71
2022/09/30 07:23:37;;;;;;;62.92;23.90;;;10.60;99.90;;;;;;5036357;28;20045;-71
2022/09/30 07:26:06;;;;;;;61.22;22.30;;;10.50;99.90;;;;;;5034115;28;20476;-72
2022/09/30 07:28:35;;;;;;;54.45;23.10;;;10.30;99.90;;;;;;5033927;28;20051;-71
2022/09/30 07:31:08;;;;;;;65.45;24.17;;;10.30;99.90;;;;;;5033996;28;20054;-71
2022/09/30 07:33:55;;;;;;;68.75;25.25;;;10.20;99.90;;;;;;5034819;28;20460;-71
2022/09/30 07:36:28;;;;;;;64.85;25.60;;;10.10;99.90;;;;;;5044188;28;20067;-71
2022/09/30 07:39:06;;;;;;;65.87;24.83;;;10.10;99.90;;;;;;5054601;28;20463;-71
2022/09/30 07:41:36;;;;;;;66.30;25.42;;;10.00;99.90;;;;;;5053629;28;20054;-71
2022/09/30 07:44:06;;;;;;;69.85;26.55;;;10.00;99.90;;;;;;5054669;28;20041;-71
2022/09/30 07:46:38;;;;;;;64.68;26.83;;;10.00;99.90;;;;;;5054577;28;20379;-71
2022/09/30 07:49:11;;;;;;;69.47;27.90;;;9.90;99.90;;;;;;5053933;28;20337;-71
2022/09/30 07:51:42;;;;;;;69.47;28.60;;;9.90;99.90;;;;;;5054611;28;20060;-71
2022/09/30 07:54:16;;;;;;;75.65;30.25;;;9.90;99.90;;;;;;5035816;28;20053;-71
2022/09/30 07:56:44;;;;;;;79.50;32.40;;;9.90;99.90;;;;;;5037938;28;20059;-71
2022/09/30 07:59:37;;;;;;;98.10;37.45;;;9.90;99.90;;;;;;5035108;28;20041;-71
2022/09/30 08:02:06;;;;;;;89.97;40.10;;;10.00;99.90;;;;;;5033660;28;20368;-72
2022/09/30 08:04:34;;;;;;;96.63;40.90;;;10.00;99.90;;;;;;5033695;28;20061;-71
2022/09/30 08:07:05;;;;;;;85.57;40.13;;;10.10;99.90;;;;;;5034816;28;20041;-71
2022/09/30 08:09:42;;;;;;;83.20;39.95;;;10.20;99.90;;;;;;5033411;28;20049;-71
2022/09/30 08:12:13;;;;;;;73.13;37.28;;;10.30;99.90;;;;;;5033766;28;20045;-71
2022/09/30 08:14:43;;;;;;;66.78;35.47;;;10.50;99.90;;;;;;5033670;28;20479;-71
2022/09/30 08:17:10;;;;;;;58.45;34.53;;;10.60;99.90;;;;;;5033687;28;20049;-71
2022/09/30 08:19:42;;;;;;;60.28;33.08;;;10.70;99.90;;;;;;5034847;28;20332;-71
2022/09/30 08:22:12;;;;;;;51.10;32.00;;;10.80;99.90;;;;;;5037096;28;20048;-71
2022/09/30 08:24:39;;;;;;;50.67;30.27;;;10.90;99.90;;;;;;5039057;28;20452;-72
2022/09/30 08:27:07;;;;;;;49.55;28.05;;;11.10;99.90;;;;;;5038497;28;20053;-71
2022/09/30 08:29:34;;;;;;;39.58;25.60;;;11.50;99.90;;;;;;5037486;28;20045;-71
2022/09/30 08:32:21;;;;;;;35.25;23.23;;;11.40;99.90;;;;;;5037748;28;20054;-71
2022/09/30 08:34:49;;;;;;;33.42;20.90;;;11.60;99.90;;;;;;5037431;28;20049;-70
2022/09/30 08:37:17;;;;;;;28.88;17.55;;;11.80;99.90;;;;;;5038297;28;20045;-71
2022/09/30 08:39:47;;;;;;;27.35;17.02;;;12.00;99.90;;;;;;5021318;28;20053;-71
2022/09/30 08:42:52;;;;;;;25.48;15.80;;;12.20;99.90;;;;;;5037293;28;20056;-71
2022/09/30 08:45:41;;;;;;;23.33;14.18;;;12.40;99.90;;;;;;5038222;28;20448;-71
2022/09/30 08:48:35;;;;;;;20.67;13.57;;;12.70;99.90;;;;;;5037366;28;20046;-71
2022/09/30 08:51:26;;;;;;;18.48;12.85;;;13.00;99.90;;;;;;5038390;28;20388;-71
2022/09/30 08:53:58;;;;;;;18.85;11.60;;;13.30;99.90;;;;;;5038109;28;20045;-71
2022/09/30 08:56:31;;;;;;;17.65;10.50;;;13.60;99.90;;;;;;5038359;28;20049;-71
2022/09/30 08:59:13;;;;;;;18.80;11.32;;;13.80;99.90;;;;;;5038212;28;20037;-71
2022/09/30 09:01:47;;;;;;;15.65;11.35;;;14.10;99.90;;;;;;5036841;28;20495;-71
2022/09/30 09:04:15;;;;;;;17.95;11.00;;;14.30;99.90;;;;;;5036786;28;20046;-71
2022/09/30 09:07:07;;;;;;;15.52;10.27;;;14.40;99.90;;;;;;5036858;28;20378;-71
2022/09/30 09:10:13;;;;;;;14.88;10.38;;;14.50;99.90;;;;;;5036785;28;20045;-71
2022/09/30 09:12:59;;;;;;;16.38;10.32;;;14.70;99.90;;;;;;5036607;28;20064;-71
2022/09/30 09:15:42;;;;;;;13.27;9.63;;;14.80;99.90;;;;;;5036823;28;20057;-71
2022/09/30 09:18:34;;;;;;;15.70;10.57;;;14.90;99.90;;;;;;5036802;28;20387;-71
2022/09/30 09:21:15;;;;;;;16.48;10.95;;;15.00;99.90;;;;;;5036047;28;20046;-71
2022/09/30 09:23:43;;;;;;;13.85;8.95;;;15.00;99.90;;;;;;5037534;28;20465;-71
2022/09/30 09:26:14;;;;;;;14.05;9.32;;;15.00;99.90;;;;;;5037510;28;20491;-71
2022/09/30 09:29:07;;;;;;;16.75;9.10;;;15.00;99.90;;;;;;5036352;28;20054;-71
2022/09/30 09:31:34;;;;;;;11.85;8.18;;;15.10;99.90;;;;;;5036939;28;20464;-72
2022/09/30 09:34:10;;;;;;;14.90;8.00;;;15.10;99.90;;;;;;5035838;28;20053;-71
2022/09/30 09:36:58;;;;;;;14.95;7.65;;;15.20;99.90;;;;;;5020072;28;20049;-71
2022/09/30 09:40:11;;;;;;;16.05;7.72;;;15.30;99.90;;;;;;5037656;28;20057;-71
2022/09/30 09:42:43;;;;;;;10.82;7.00;;;15.40;99.90;;;;;;5033335;28;20053;-71
2022/09/30 09:45:30;;;;;;;12.43;8.18;;;15.50;99.90;;;;;;5037185;28;20056;-71
2022/09/30 09:47:58;;;;;;;14.32;7.75;;;15.50;99.90;;;;;;5036395;28;20045;-72
2022/09/30 09:51:17;;;;;;;13.50;7.63;;;15.60;99.90;;;;;;5036128;28;20045;-72
2022/09/30 09:53:51;;;;;;;12.13;7.28;;;15.60;99.90;;;;;;4993589;28;20045;-72
2022/09/30 09:56:21;;;;;;;12.55;7.05;;;15.60;99.90;;;;;;5036024;28;20056;-71
2022/09/30 09:59:12;;;;;;;10.23;5.72;;;15.70;99.90;;;;;;5036751;28;20464;-71
2022/09/30 10:01:52;;;;;;;10.02;5.82;;;15.70;99.90;;;;;;5034713;28;20045;-72
2022/09/30 10:04:28;;;;;;;11.95;5.40;;;15.70;99.90;;;;;;5022984;28;20050;-72
2022/09/30 10:06:58;;;;;;;8.77;5.72;;;15.70;99.60;;;;;;5000256;28;20046;-72
2022/09/30 10:09:26;;;;;;;10.18;5.82;;;15.80;99.50;;;;;;5015925;28;20037;-71
2022/09/30 10:12:06;;;;;;;9.05;5.72;;;15.80;99.80;;;;;;4999811;28;20051;-72
2022/09/30 10:14:35;;;;;;;9.45;5.90;;;16.00;99.90;;;;;;5015627;28;20058;-71
2022/09/30 10:17:14;;;;;;;10.68;6.10;;;16.10;99.50;;;;;;5016548;28;20054;-71
2022/09/30 10:19:52;;;;;;;10.07;5.97;;;16.20;99.40;;;;;;4999229;28;20045;-71
2022/09/30 10:22:30;;;;;;;13.05;6.20;;;16.20;99.00;;;;;;4998281;28;20056;-71
2022/09/30 10:25:30;;;;;;;11.40;5.90;;;16.30;99.20;;;;;;5016261;28;20041;-71
2022/09/30 10:27:59;;;;;;;8.55;5.30;;;16.30;98.90;;;;;;4956359;28;20380;-72
2022/09/30 10:30:40;;;;;;;8.98;5.57;;;16.40;99.00;;;;;;5015848;28;20068;-71
2022/09/30 10:33:27;;;;;;;9.82;5.38;;;16.40;98.80;;;;;;5016134;28;20053;-71
2022/09/30 10:36:01;;;;;;;9.25;4.93;;;16.50;98.80;;;;;;5015071;28;20054;-72
2022/09/30 10:38:30;;;;;;;8.50;5.38;;;16.50;98.80;;;;;;5016249;28;20046;-71
2022/09/30 10:40:59;;;;;;;8.38;4.95;;;16.60;98.90;;;;;;5014928;28;20050;-69
2022/09/30 10:43:34;;;;;;;8.73;5.10;;;16.70;98.90;;;;;;5014346;28;20050;-70
2022/09/30 10:46:03;;;;;;;8.43;5.13;;;16.70;98.90;;;;;;4998393;28;20065;-71
2022/09/30 10:48:53;;;;;;;8.85;5.18;;;16.80;98.20;;;;;;5015201;28;20042;-71
2022/09/30 10:51:32;;;;;;;7.85;4.90;;;16.80;98.20;;;;;;5004074;28;20483;-71
2022/09/30 10:54:00;;;;;;;8.32;4.78;;;16.80;98.40;;;;;;5016639;28;20056;-72
2022/09/30 10:56:33;;;;;;;9.18;4.78;;;16.80;98.50;;;;;;5024854;28;20397;-70
2022/09/30 10:59:03;;;;;;;8.13;4.30;;;16.90;98.50;;;;;;5015377;28;20064;-69
2022/09/30 11:01:46;;;;;;;9.68;4.80;;;17.00;98.20;;;;;;4997375;28;20065;-71
2022/09/30 11:04:22;;;;;;;8.00;4.10;;;17.10;98.00;;;;;;5015475;28;20061;-69
2022/09/30 11:06:57;;;;;;;9.73;4.82;;;17.20;98.10;;;;;;4998336;28;20046;-70
2022/09/30 11:09:46;;;;;;;7.68;4.72;;;17.20;98.10;;;;;;5022915;28;20037;-72
2022/09/30 11:12:28;;;;;;;15.55;4.70;;;17.40;97.60;;;;;;5035233;28;20368;-72
2022/09/30 11:15:13;;;;;;;6.68;4.68;;;17.40;97.20;;;;;;5016476;28;20120;-72
2022/09/30 11:17:55;;;;;;;7.82;4.80;;;17.40;97.10;;;;;;5034993;28;20042;-72
2022/09/30 11:20:42;;;;;;;11.65;5.10;;;17.40;97.20;;;;;;5034740;28;20060;-72
2022/09/30 11:23:36;;;;;;;8.45;4.43;;;17.40;97.10;;;;;;5034749;28;20456;-72
2022/09/30 11:26:25;;;;;;;7.05;5.00;;;17.40;97.00;;;;;;5017643;28;20042;-72
2022/09/30 11:29:24;;;;;;;8.52;4.97;;;17.30;96.90;;;;;;5033508;28;20052;-72
2022/09/30 11:32:18;;;;;;;7.63;4.70;;;17.30;97.00;;;;;;4997726;28;20041;-71
2022/09/30 11:35:15;;;;;;;8.82;4.50;;;17.30;97.00;;;;;;5033636;28;20057;-72
2022/09/30 11:38:22;;;;;;;9.43;5.40;;;17.40;97.00;;;;;;4985080;28;20403;-72
2022/09/30 11:41:07;;;;;;;9.25;5.32;;;17.50;96.70;;;;;;5033598;28;20049;-72
2022/09/30 11:43:56;;;;;;;5.95;3.92;;;17.60;96.50;;;;;;5034281;28;20574;-72
2022/09/30 11:46:39;;;;;;;8.40;4.15;;;17.70;96.40;;;;;;5020962;28;20476;-72
2022/09/30 11:49:24;;;;;;;6.88;3.90;;;17.80;96.20;;;;;;5003481;28;20037;-72
2022/09/30 11:52:17;;;;;;;7.15;3.40;;;17.90;96.20;;;;;;5020053;28;20064;-73
2022/09/30 11:55:22;;;;;;;5.60;3.13;;;18.10;96.10;;;;;;4995669;28;20065;-74
2022/09/30 11:58:05;;;;;;;5.53;2.47;;;18.10;95.70;;;;;;4981293;28;20057;-72
2022/09/30 12:01:09;;;;;;;5.15;2.40;;;18.30;95.60;;;;;;4999459;28;20049;-73
2022/09/30 12:03:42;;;;;;;7.95;2.28;;;18.40;95.60;;;;;;5014510;28;20053;-73
2022/09/30 12:06:25;;;;;;;5.38;2.30;;;18.50;94.60;;;;;;5014747;28;20046;-73
2022/09/30 12:08:58;;;;;;;4.07;2.33;;;18.50;94.10;;;;;;4980218;28;20076;-73
2022/09/30 12:11:42;;;;;;;3.90;1.90;;;18.30;93.60;;;;;;4997371;28;20053;-74
2022/09/30 12:14:30;;;;;;;3.88;2.20;;;18.10;93.50;;;;;;5020869;28;20038;-72
2022/09/30 12:16:59;;;;;;;;;;;18.10;93.80;;;;;;5016706;28;20048;-72
2022/09/30 12:19:35;;;;;;;2.85;1.80;;;17.90;93.60;;;;;;4998016;28;19921;-72
2022/09/30 12:22:15;;;;;;;2.83;1.50;;;17.90;93.90;;;;;;4980230;28;20054;-72
2022/09/30 12:24:46;;;;;;;3.72;1.73;;;17.90;94.10;;;;;;5022299;28;20037;-72
2022/09/30 12:27:17;;;;;;;6.32;1.70;;;17.90;93.80;;;;;;5007063;28;20045;-71
2022/09/30 12:30:17;;;;;;;4.20;2.05;;;17.90;93.70;;;;;;5021979;28;20384;-71
2022/09/30 12:33:12;;;;;;;7.45;1.90;;;17.90;93.80;;;;;;5014742;28;20038;-70
2022/09/30 12:36:04;;;;;;;3.58;1.75;;;17.80;93.90;;;;;;5028610;28;20056;-70
2022/09/30 12:38:52;;;;;;;3.08;1.45;;;17.90;93.90;;;;;;5032374;28;20045;-72
2022/09/30 12:41:39;;;;;;;5.45;1.70;;;17.90;93.70;;;;;;5015460;28;20046;-71
2022/09/30 12:44:44;;;;;;;3.38;1.60;;;18.00;93.90;;;;;;5017440;28;20046;-72
2022/09/30 12:47:44;;;;;;;4.40;1.85;;;18.10;93.80;;;;;;5034729;28;20049;-72
2022/09/30 12:50:15;;;;;;;4.07;1.50;;;18.20;93.80;;;;;;5011131;28;20064;-71
2022/09/30 12:52:43;;;;;;;3.53;1.40;;;18.20;93.40;;;;;;5034314;28;20045;-71
2022/09/30 12:55:27;;;;;;;2.60;1.42;;;18.20;92.90;;;;;;5033388;28;20046;-72
2022/09/30 12:57:57;;;;;;;3.38;1.50;;;18.20;93.30;;;;;;5034572;28;20041;-71
2022/09/30 13:00:33;;;;;;;5.00;1.40;;;18.30;93.00;;;;;;5034070;28;20056;-72
2022/09/30 13:03:07;;;;;;;5.40;1.70;;;18.40;93.10;;;;;;5032796;28;20045;-72
2022/09/30 13:05:50;;;;;;;4.20;1.30;;;18.40;92.90;;;;;;5034278;28;20061;-71
2022/09/30 13:08:18;;;;;;;5.47;1.48;;;18.40;92.80;;;;;;5037104;28;20048;-72
2022/09/30 13:11:03;;;;;;;5.35;1.45;;;18.40;92.20;;;;;;5038081;28;20041;-71
2022/09/30 13:13:35;;;;;;;4.50;1.20;;;18.20;92.20;;;;;;5038014;28;20045;-72
2022/09/30 13:16:05;;;;;;;2.60;1.20;;;18.10;92.00;;;;;;5036544;28;20050;-72
2022/09/30 13:18:33;;;;;;;6.53;1.40;;;18.10;92.20;;;;;;5020660;28;20164;-72
2022/09/30 13:21:03;;;;;;;5.57;1.20;;;18.10;92.30;;;;;;5036430;28;20293;-71
2022/09/30 13:23:38;;;;;;;3.10;1.52;;;18.00;92.30;;;;;;5020405;28;20045;-72
2022/09/30 13:26:32;;;;;;;4.50;1.15;;;18.00;92.40;;;;;;5037431;28;20050;-72